Time;durP1;ratioP1;P1;durP2;ratioP2;P2;SDS_P1;SDS_P2;PMS_P1;PMS_P2;Temp;Humidity;BMP_temperature;BMP_pressure;BME280_temperature;BME280_humidity;BME280_pressure;Samples;Min_cycle;Max_cycle;Signal;HPM_P1;HPM_P2
2023/12/16 00:01:13;;;;;;;4.70;2.50;;;;;;;-3.38;81.38;97062.38;110284;1277;22220;-81
2023/12/16 00:03:41;;;;;;;4.60;2.10;;;;;;;-3.37;81.29;97052.80;110305;1277;23086;-81
2023/12/16 00:06:10;;;;;;;3.20;2.00;;;;;;;-3.34;81.34;97050.74;110299;1274;22099;-81
2023/12/16 00:08:38;;;;;;;3.20;1.90;;;;;;;-3.36;81.34;97055.97;110293;1277;22107;-81
2023/12/16 00:11:07;;;;;;;4.10;2.80;;;;;;;-3.40;81.47;97058.47;110285;1277;22922;-82
2023/12/16 00:13:36;;;;;;;4.10;2.70;;;;;;;-3.40;81.57;97055.70;110313;1277;22140;-82
2023/12/16 00:16:05;;;;;;;4.80;3.10;;;;;;;-3.43;82.04;97061.40;110303;1277;22610;-81
2023/12/16 00:18:36;;;;;;;4.90;2.80;;;;;;;-3.49;81.88;97061.92;110260;1277;22137;-82
2023/12/16 00:21:04;;;;;;;4.40;2.80;;;;;;;-3.52;81.93;97062.06;110309;1277;22848;-81
2023/12/16 00:23:32;;;;;;;5.50;2.90;;;;;;;-3.54;82.03;97064.55;110314;1277;22132;-81
2023/12/16 00:26:01;;;;;;;3.60;2.50;;;;;;;-3.50;82.20;97071.85;110321;1277;22113;-81
2023/12/16 00:28:29;;;;;;;3.50;2.30;;;;;;;-3.50;82.07;97076.12;110316;1277;22179;-82
2023/12/16 00:30:57;;;;;;;5.00;3.30;;;;;;;-3.54;81.97;97081.93;110278;1277;23074;-82
2023/12/16 00:33:26;;;;;;;7.10;3.20;;;;;;;-3.60;81.80;97086.21;110291;1277;22173;-82
2023/12/16 00:35:54;;;;;;;7.30;4.30;;;;;;;-3.62;81.69;97083.16;110249;1277;22124;-82
2023/12/16 00:38:22;;;;;;;7.20;3.70;;;;;;;-3.59;81.88;97080.73;110305;1277;22138;-82
2023/12/16 00:40:50;;;;;;;6.80;3.70;;;;;;;-3.54;82.09;97079.36;110257;1278;22983;-82
2023/12/16 00:43:18;;;;;;;5.90;3.40;;;;;;;-3.48;82.03;97084.48;110289;1277;22124;-82
2023/12/16 00:45:46;;;;;;;4.20;3.00;;;;;;;-3.49;82.02;97083.92;110308;1277;22092;-82
2023/12/16 00:48:15;;;;;;;9.30;4.70;;;;;;;-3.52;81.82;97091.51;110269;1277;22151;-82
2023/12/16 00:50:43;;;;;;;4.80;2.40;;;;;;;-3.49;82.27;97099.91;110280;1277;22116;-82
2023/12/16 00:53:12;;;;;;;5.30;2.90;;;;;;;-3.42;82.71;97105.15;110263;1277;22203;-82
2023/12/16 00:55:40;;;;;;;5.70;2.90;;;;;;;-3.34;82.92;97106.12;110291;1277;22385;-82
2023/12/16 00:58:09;;;;;;;6.50;3.30;;;;;;;-3.29;82.52;97114.88;110274;1277;22110;-82
2023/12/16 01:00:37;;;;;;;5.70;3.50;;;;;;;-3.35;82.21;97120.69;110203;1277;22126;-82
2023/12/16 01:03:05;;;;;;;4.00;2.50;;;;;;;-3.29;82.71;97120.72;110296;1277;22120;-82
2023/12/16 01:05:37;;;;;;;5.20;2.60;;;;;;;-3.18;83.25;97114.67;110214;1277;22190;-82
2023/12/16 01:08:06;;;;;;;4.60;2.50;;;;;;;-3.13;82.75;97121.51;110273;1277;22138;-82
2023/12/16 01:10:34;;;;;;;3.50;2.40;;;;;;;-3.07;82.95;97121.34;110321;1277;22274;-82
2023/12/16 01:13:02;;;;;;;7.30;4.10;;;;;;;-3.06;82.02;97120.71;110301;1277;22205;-82
2023/12/16 01:15:30;;;;;;;2.80;2.00;;;;;;;-3.15;81.77;97115.85;110280;1274;22126;-82
2023/12/16 01:17:59;;;;;;;3.60;1.90;;;;;;;-3.11;82.51;97114.05;110280;1277;22107;-83
2023/12/16 01:20:27;;;;;;;3.70;2.20;;;;;;;-3.00;82.81;97111.52;110308;1277;22129;-82
2023/12/16 01:22:55;;;;;;;4.20;2.30;;;;;;;-2.96;82.56;97115.95;110271;1277;22139;-82
2023/12/16 01:25:24;;;;;;;3.80;2.40;;;;;;;-3.02;81.69;97118.14;110281;1277;22589;-82
2023/12/16 01:27:52;;;;;;;6.60;2.60;;;;;;;-3.14;80.98;97118.52;110296;1277;22096;-82
2023/12/16 01:30:20;;;;;;;5.80;2.60;;;;;;;-3.26;80.72;97118.86;110281;1277;22085;-82
2023/12/16 01:32:48;;;;;;;4.00;2.30;;;;;;;-3.37;81.09;97120.45;110311;1277;22094;-82
2023/12/16 01:35:17;;;;;;;3.40;2.10;;;;;;;-3.45;81.37;97125.98;110281;1277;22593;-82
2023/12/16 01:37:45;;;;;;;7.00;3.60;;;;;;;-3.59;81.34;97123.89;110284;1277;22131;-82
2023/12/16 01:40:13;;;;;;;8.90;5.30;;;;;;;-3.70;81.90;97126.67;110288;1277;22154;-82
2023/12/16 01:42:42;;;;;;;10.40;5.20;;;;;;;-3.80;82.31;97123.52;110292;1277;22237;-82
2023/12/16 01:45:10;;;;;;;6.40;3.20;;;;;;;-3.85;82.43;97117.70;110292;1277;22153;-81
2023/12/16 01:47:39;;;;;;;4.50;2.60;;;;;;;-3.88;82.42;97120.31;110299;1277;22133;-82
2023/12/16 01:50:10;;;;;;;4.50;2.00;;;;;;;-3.90;81.95;97123.56;110296;1277;22311;-82
2023/12/16 01:52:41;;;;;;;3.60;2.10;;;;;;;-4.00;81.61;97129.19;110326;1277;22130;-82
2023/12/16 01:55:10;;;;;;;2.50;1.60;;;;;;;-4.14;82.02;97139.98;110297;1277;22898;-82
2023/12/16 01:57:40;;;;;;;3.60;2.30;;;;;;;-4.19;82.27;97143.44;110286;1277;23027;-82
2023/12/16 02:00:11;;;;;;;4.30;2.40;;;;;;;-4.23;82.31;97146.09;110287;1277;22581;-82
2023/12/16 02:02:42;;;;;;;3.40;2.30;;;;;;;-4.22;82.40;97144.27;110279;1277;22162;-82
2023/12/16 02:05:10;;;;;;;3.60;2.20;;;;;;;-4.19;82.99;97147.59;110303;1262;22141;-83
2023/12/16 02:07:38;;;;;;;3.30;2.30;;;;;;;-4.20;82.81;97153.53;110278;1277;22173;-83
2023/12/16 02:10:08;;;;;;;4.70;2.70;;;;;;;-4.23;82.62;97159.16;110297;1277;22151;-82
2023/12/16 02:12:36;;;;;;;5.50;3.10;;;;;;;-4.28;82.97;97163.98;110325;1277;22855;-82
2023/12/16 02:15:05;;;;;;;4.60;2.90;;;;;;;-4.34;83.58;97171.23;110299;1277;22140;-82
2023/12/16 02:17:33;;;;;;;5.60;2.90;;;;;;;-4.41;83.70;97171.95;110312;1277;22352;-82
2023/12/16 02:20:02;;;;;;;4.50;2.60;;;;;;;-4.47;83.61;97176.40;110290;1277;22123;-82
2023/12/16 02:22:31;;;;;;;5.50;2.70;;;;;;;-4.49;83.99;97182.78;110308;1277;22249;-82
2023/12/16 02:25:00;;;;;;;2.60;1.90;;;;;;;-4.48;83.81;97187.28;110298;1277;23064;-83
2023/12/16 02:27:28;;;;;;;6.40;2.60;;;;;;;-4.51;83.81;97191.40;110283;1277;22174;-83
2023/12/16 02:29:57;;;;;;;3.70;2.50;;;;;;;-4.52;83.92;97195.27;110311;1277;22198;-81
2023/12/16 02:32:25;;;;;;;5.80;4.00;;;;;;;-4.50;83.84;97204.85;110314;1277;22139;-82
2023/12/16 02:34:53;;;;;;;4.30;2.70;;;;;;;-4.47;83.93;97211.96;110289;1277;22936;-82
2023/12/16 02:37:21;;;;;;;3.80;2.50;;;;;;;-4.42;83.86;97213.81;110309;1277;22168;-82
2023/12/16 02:39:49;;;;;;;3.50;2.20;;;;;;;-4.40;83.51;97217.38;110322;1277;22987;-82
2023/12/16 02:42:18;;;;;;;4.60;2.50;;;;;;;-4.42;83.35;97222.75;110314;1277;22208;-82
2023/12/16 02:44:46;;;;;;;3.50;2.40;;;;;;;-4.43;83.31;97226.77;110314;1277;22127;-83
2023/12/16 02:47:14;;;;;;;3.90;2.30;;;;;;;-4.44;83.38;97226.52;110195;1277;22127;-82
2023/12/16 02:49:44;;;;;;;4.50;2.70;;;;;;;-4.43;83.48;97230.05;110326;1277;23156;-83
2023/12/16 02:52:12;;;;;;;3.80;2.50;;;;;;;-4.42;83.49;97233.77;110292;1277;22841;-83
2023/12/16 02:54:40;;;;;;;8.60;3.50;;;;;;;-4.44;83.11;97234.84;110311;1277;22169;-83
2023/12/16 02:57:09;;;;;;;5.70;3.30;;;;;;;-4.46;83.17;97231.95;110315;1277;22382;-83
2023/12/16 02:59:37;;;;;;;7.10;3.50;;;;;;;-4.49;83.15;97237.59;110291;1277;22147;-82
2023/12/16 03:02:05;;;;;;;7.10;3.70;;;;;;;-4.51;83.48;97241.59;110302;1277;22138;-82
2023/12/16 03:04:34;;;;;;;7.70;4.10;;;;;;;-4.51;83.98;97244.29;110283;1277;22127;-82
2023/12/16 03:07:02;;;;;;;6.10;3.30;;;;;;;-4.54;83.85;97241.34;110301;1277;23033;-83
2023/12/16 03:09:30;;;;;;;5.50;3.40;;;;;;;-4.53;83.83;97240.22;110293;1277;23036;-83
2023/12/16 03:12:00;;;;;;;4.40;2.70;;;;;;;-4.52;83.89;97243.71;110308;1277;22111;-82
2023/12/16 03:14:28;;;;;;;4.80;3.20;;;;;;;-4.50;84.08;97246.96;110314;1277;22117;-82
2023/12/16 03:16:57;;;;;;;5.60;3.20;;;;;;;-4.46;83.97;97249.14;110308;1277;22140;-82
2023/12/16 03:19:27;;;;;;;7.40;3.50;;;;;;;-4.48;84.01;97255.30;110302;1277;22224;-83
2023/12/16 03:21:55;;;;;;;5.20;3.30;;;;;;;-4.48;84.03;97266.85;110300;1277;22153;-82
2023/12/16 03:24:23;;;;;;;3.90;2.70;;;;;;;-4.44;84.33;97273.59;110295;1277;22737;-83
2023/12/16 03:26:51;;;;;;;6.10;3.10;;;;;;;-4.44;84.32;97277.95;110314;1277;22297;-82
2023/12/16 03:29:20;;;;;;;4.30;2.90;;;;;;;-4.34;84.77;97281.31;110298;1277;22178;-83
2023/12/16 03:31:49;;;;;;;8.00;3.10;;;;;;;-4.22;84.76;97288.10;110298;1277;22136;-83
2023/12/16 03:34:17;;;;;;;4.60;2.80;;;;;;;-4.16;84.14;97287.30;110291;1277;22185;-83
2023/12/16 03:36:45;;;;;;;4.10;2.50;;;;;;;-4.16;84.15;97286.46;110330;1277;22199;-83
2023/12/16 03:39:13;;;;;;;10.50;5.90;;;;;;;-4.18;83.59;97299.88;110313;1277;22099;-83
2023/12/16 03:41:41;;;;;;;8.40;5.30;;;;;;;-4.27;83.02;97310.08;110327;1277;23012;-82
2023/12/16 03:44:09;;;;;;;8.40;4.60;;;;;;;-4.35;83.47;97318.70;110327;1277;22777;-83
2023/12/16 03:46:38;;;;;;;11.60;2.80;;;;;;;-4.37;83.52;97320.45;110313;1277;22117;-82
2023/12/16 03:49:06;;;;;;;3.80;2.80;;;;;;;-4.42;83.80;97323.21;110313;1277;22333;-83
2023/12/16 03:51:34;;;;;;;3.40;2.30;;;;;;;-4.35;84.45;97320.23;110317;1277;22145;-82
2023/12/16 03:54:03;;;;;;;3.30;2.30;;;;;;;-4.33;83.95;97325.00;110306;1277;22385;-82
2023/12/16 03:56:31;;;;;;;5.90;3.20;;;;;;;-4.35;83.73;97325.44;110323;1277;22129;-83
2023/12/16 03:58:59;;;;;;;4.00;2.10;;;;;;;-4.36;83.59;97328.96;110331;1277;22128;-82
2023/12/16 04:01:27;;;;;;;3.50;2.30;;;;;;;-4.37;83.45;97328.70;110316;1277;22220;-82
2023/12/16 04:03:55;;;;;;;4.30;2.30;;;;;;;-4.37;83.57;97324.56;110302;1277;22748;-82
2023/12/16 04:06:24;;;;;;;4.60;2.40;;;;;;;-4.43;83.12;97323.33;110320;1277;22170;-82
2023/12/16 04:08:52;;;;;;;8.70;2.70;;;;;;;-4.50;83.11;97326.59;110346;1277;22131;-83
2023/12/16 04:11:20;;;;;;;6.10;2.90;;;;;;;-4.58;83.04;97329.17;110332;1277;22135;-83
2023/12/16 04:13:48;;;;;;;3.40;2.40;;;;;;;-4.65;83.08;97324.97;110324;1277;23002;-83
2023/12/16 04:16:16;;;;;;;3.40;2.20;;;;;;;-4.69;83.14;97326.72;110314;1277;22122;-82
2023/12/16 04:18:45;;;;;;;5.70;3.40;;;;;;;-4.72;83.26;97321.92;110310;1277;22199;-82
2023/12/16 04:21:14;;;;;;;18.70;7.70;;;;;;;-4.79;83.48;97317.30;110303;1277;22115;-82
2023/12/16 04:23:42;;;;;;;61.80;25.50;;;;;;;-4.89;83.76;97324.50;110331;1277;22104;-82
2023/12/16 04:26:10;;;;;;;95.10;39.30;;;;;;;-4.95;83.76;97329.23;110329;1277;22138;-82
2023/12/16 04:28:38;;;;;;;71.90;28.00;;;;;;;-5.00;83.88;97327.86;110313;1277;22300;-82
2023/12/16 04:31:13;;;;;;;70.80;28.60;;;;;;;-5.08;83.95;97326.33;110170;1277;22274;-82
2023/12/16 04:33:41;;;;;;;35.20;14.90;;;;;;;-5.16;84.27;97327.13;110311;1277;22158;-82
2023/12/16 04:36:14;;;;;;;17.60;8.60;;;;;;;-5.22;84.85;97342.17;110350;1277;22142;-82
2023/12/16 04:38:43;;;;;;;5.20;3.30;;;;;;;-5.25;84.76;97345.18;110322;1277;23100;-82
2023/12/16 04:41:14;;;;;;;8.20;3.60;;;;;;;-5.28;85.14;97348.24;110298;1277;22881;-82
2023/12/16 04:43:42;;;;;;;4.30;2.60;;;;;;;-5.32;84.63;97343.88;109860;1277;597385;-82
2023/12/16 04:46:10;;;;;;;4.90;2.80;;;;;;;-5.31;84.68;97345.14;110320;1277;22107;-82
2023/12/16 04:48:39;;;;;;;5.40;3.20;;;;;;;-5.25;84.84;97336.32;110333;1277;22176;-82
2023/12/16 04:51:07;;;;;;;5.50;2.80;;;;;;;-5.18;84.81;97335.19;110360;1266;22987;-82
2023/12/16 04:53:36;;;;;;;6.80;3.70;;;;;;;-5.12;85.04;97337.02;110350;1277;22301;-82
2023/12/16 04:56:04;;;;;;;18.70;9.40;;;;;;;-5.11;84.76;97339.13;110311;1277;22221;-82
2023/12/16 04:58:33;;;;;;;17.60;8.10;;;;;;;-5.19;84.40;97344.20;110340;1277;22271;-82
2023/12/16 05:01:01;;;;;;;5.40;3.40;;;;;;;-5.18;84.99;97341.86;110341;1277;22862;-82
2023/12/16 05:03:33;;;;;;;5.70;3.40;;;;;;;-5.20;84.89;97346.95;110341;1277;22534;-82
2023/12/16 05:06:01;;;;;;;7.20;3.70;;;;;;;-5.21;84.92;97347.85;110328;1277;22203;-83
2023/12/16 05:08:29;;;;;;;7.50;3.60;;;;;;;-5.23;84.70;97346.36;110347;1277;22828;-82
2023/12/16 05:10:57;;;;;;;8.40;4.00;;;;;;;-5.18;85.00;97348.56;110317;1277;22857;-82
2023/12/16 05:13:26;;;;;;;5.80;3.10;;;;;;;-5.07;85.30;97348.99;110336;1277;22817;-83
2023/12/16 05:15:54;;;;;;;5.70;2.80;;;;;;;-5.01;84.94;97351.35;110310;1277;22287;-83
2023/12/16 05:18:23;;;;;;;5.30;2.60;;;;;;;-4.97;84.70;97350.39;110314;1277;22206;-82
2023/12/16 05:20:52;;;;;;;4.50;2.30;;;;;;;-4.88;85.23;97348.95;110325;1277;22156;-82
2023/12/16 05:23:20;;;;;;;4.90;2.80;;;;;;;-4.80;84.83;97337.67;110334;1277;22189;-83
2023/12/16 05:25:48;;;;;;;5.70;2.90;;;;;;;-4.75;84.53;97337.13;110319;1277;22295;-82
2023/12/16 05:28:16;;;;;;;4.00;2.20;;;;;;;-4.71;84.58;97340.14;110327;1277;22218;-82
2023/12/16 05:30:45;;;;;;;6.50;4.20;;;;;;;-4.69;84.35;97339.07;110335;1277;22245;-82
2023/12/16 05:33:13;;;;;;;4.10;2.50;;;;;;;-4.76;83.93;97348.20;110331;1277;22143;-82
2023/12/16 05:35:42;;;;;;;4.50;3.00;;;;;;;-4.85;83.49;97353.48;110338;1277;22193;-82
2023/12/16 05:38:10;;;;;;;6.40;3.00;;;;;;;-4.92;83.71;97356.02;110330;1277;22994;-82
2023/12/16 05:40:38;;;;;;;5.40;3.00;;;;;;;-4.95;83.81;97350.86;110334;1277;22998;-82
2023/12/16 05:43:08;;;;;;;5.60;2.60;;;;;;;-4.92;84.12;97340.26;110339;1277;22132;-82
2023/12/16 05:45:36;;;;;;;4.00;2.30;;;;;;;-4.91;84.20;97332.12;110343;1277;22136;-82
2023/12/16 05:48:05;;;;;;;4.80;2.90;;;;;;;-4.91;84.05;97335.52;110344;1277;22162;-82
2023/12/16 05:50:33;;;;;;;7.50;3.40;;;;;;;-4.96;83.80;97332.27;110322;1277;22280;-82
2023/12/16 05:53:01;;;;;;;23.70;9.20;;;;;;;-5.05;83.48;97331.67;110174;1277;22203;-81
2023/12/16 05:55:29;;;;;;;65.70;22.70;;;;;;;-5.13;83.60;97338.45;110326;1277;22852;-82
2023/12/16 05:57:58;;;;;;;50.40;16.70;;;;;;;-5.20;83.82;97345.88;110332;1277;22260;-82
2023/12/16 06:00:27;;;;;;;18.70;8.80;;;;;;;-5.26;83.82;97349.05;110299;1277;22890;-82
2023/12/16 06:02:55;;;;;;;9.60;4.30;;;;;;;-5.33;83.84;97348.77;110315;1277;22298;-82
2023/12/16 06:05:25;;;;;;;4.30;2.60;;;;;;;-5.32;84.02;97349.36;110301;1277;22197;-82
2023/12/16 06:07:53;;;;;;;6.60;3.40;;;;;;;-5.31;83.88;97354.92;110337;1277;22115;-82
2023/12/16 06:10:21;;;;;;;10.70;5.60;;;;;;;-5.31;83.79;97352.67;110332;1277;22265;-82
2023/12/16 06:12:49;;;;;;;7.10;4.50;;;;;;;-5.40;84.05;97345.16;110341;1277;22157;-82
2023/12/16 06:15:17;;;;;;;5.50;3.20;;;;;;;-5.48;83.98;97352.14;110350;1277;22158;-82
2023/12/16 06:17:45;;;;;;;9.30;4.60;;;;;;;-5.51;84.53;97357.58;110188;1277;22109;-82
2023/12/16 06:20:15;;;;;;;17.90;9.40;;;;;;;-5.55;84.87;97362.95;110326;1277;22122;-82
2023/12/16 06:22:43;;;;;;;11.20;4.30;;;;;;;-5.56;84.96;97370.29;110186;1277;22133;-82
2023/12/16 06:25:11;;;;;;;3.40;2.20;;;;;;;-5.53;84.83;97371.00;110299;1277;22119;-83
2023/12/16 06:27:40;;;;;;;3.90;2.40;;;;;;;-5.50;84.80;97369.38;110347;1277;22127;-82
2023/12/16 06:30:09;;;;;;;12.00;6.90;;;;;;;-5.51;84.66;97371.69;110342;1277;22939;-82
2023/12/16 06:32:37;;;;;;;19.50;9.30;;;;;;;-5.55;84.78;97379.07;110313;1277;22162;-82
2023/12/16 06:35:06;;;;;;;15.00;7.10;;;;;;;-5.56;84.96;97383.64;110310;1277;22181;-82
2023/12/16 06:37:35;;;;;;;12.30;6.70;;;;;;;-5.59;84.90;97379.27;110334;1263;22165;-82
2023/12/16 06:40:05;;;;;;;21.80;9.20;;;;;;;-5.67;85.29;97374.85;110321;1277;22909;-82
2023/12/16 06:42:33;;;;;;;24.90;13.70;;;;;;;-5.70;85.47;97374.41;110339;1269;22236;-82
2023/12/16 06:45:01;;;;;;;24.30;11.90;;;;;;;-5.68;85.84;97379.38;110350;1277;22122;-82
2023/12/16 06:47:29;;;;;;;29.00;14.10;;;;;;;-5.62;86.09;97385.96;110325;1277;22167;-82
2023/12/16 06:49:58;;;;;;;36.40;17.40;;;;;;;-5.55;86.18;97390.04;110337;1277;23236;-82
2023/12/16 06:52:26;;;;;;;32.80;16.60;;;;;;;-5.44;86.18;97399.44;110320;1277;22132;-82
2023/12/16 06:54:54;;;;;;;33.10;17.70;;;;;;;-5.30;86.21;97410.73;110347;1277;22889;-82
2023/12/16 06:57:22;;;;;;;15.00;9.90;;;;;;;-5.15;86.13;97417.98;110354;1277;22133;-82
2023/12/16 06:59:50;;;;;;;15.80;8.60;;;;;;;-4.98;86.23;97415.89;110334;1277;22148;-82
2023/12/16 07:02:19;;;;;;;48.80;23.50;;;;;;;-4.83;86.05;97421.23;110342;1277;22208;-82
2023/12/16 07:04:48;;;;;;;41.40;21.50;;;;;;;-4.74;85.78;97428.34;110330;1277;22150;-82
2023/12/16 07:07:16;;;;;;;45.60;24.00;;;;;;;-4.70;85.84;97432.39;110307;1277;22747;-82
2023/12/16 07:09:45;;;;;;;45.90;22.20;;;;;;;-4.61;85.85;97434.79;110343;1277;22880;-81
2023/12/16 07:12:13;;;;;;;44.40;23.80;;;;;;;-4.52;85.81;97435.37;110287;1271;22835;-82
2023/12/16 07:14:43;;;;;;;52.40;30.30;;;;;;;-4.35;86.34;97433.45;110352;1277;22922;-82
2023/12/16 07:17:11;;;;;;;50.70;29.70;;;;;;;-4.13;86.04;97436.46;110333;1277;22151;-81
2023/12/16 07:19:39;;;;;;;67.40;37.70;;;;;;;-4.06;84.81;97432.11;110336;1277;22866;-82
2023/12/16 07:22:07;;;;;;;57.60;33.30;;;;;;;-4.02;84.25;97427.78;110305;1277;22914;-82
2023/12/16 07:24:37;;;;;;;44.10;22.30;;;;;;;-3.99;84.03;97424.70;110349;1277;23076;-82
2023/12/16 07:27:06;;;;;;;50.40;27.60;;;;;;;-3.96;84.01;97427.81;110314;1277;22172;-82
2023/12/16 07:29:34;;;;;;;46.40;28.10;;;;;;;-3.88;84.34;97430.42;110341;1277;22146;-82
2023/12/16 07:32:03;;;;;;;33.80;18.60;;;;;;;-3.81;84.25;97427.42;110349;1277;22223;-82
2023/12/16 07:34:31;;;;;;;31.20;19.10;;;;;;;-3.84;83.82;97418.10;110355;1277;22118;-82
2023/12/16 07:37:00;;;;;;;53.60;29.10;;;;;;;-3.84;84.02;97413.47;110316;1277;22138;-82
2023/12/16 07:39:28;;;;;;;32.20;18.80;;;;;;;-3.79;84.20;97414.64;110327;1277;22324;-82
2023/12/16 07:41:56;;;;;;;32.20;17.90;;;;;;;-3.67;84.73;97419.60;110376;1277;22150;-82
2023/12/16 07:44:27;;;;;;;26.50;14.60;;;;;;;-3.56;84.33;97425.13;110343;1277;23080;-83
2023/12/16 07:46:55;;;;;;;17.60;11.80;;;;;;;-3.50;83.94;97428.95;110362;1277;22238;-81
2023/12/16 07:49:25;;;;;;;20.50;12.30;;;;;;;-3.44;84.01;97425.69;110350;1270;22142;-83
2023/12/16 07:51:54;;;;;;;22.30;12.70;;;;;;;-3.34;83.87;97419.13;110356;1277;22177;-83
2023/12/16 07:54:24;;;;;;;23.10;14.80;;;;;;;-3.29;83.57;97419.96;110352;1277;22237;-82
2023/12/16 07:56:52;;;;;;;34.40;16.60;;;;;;;-3.30;83.40;97416.96;110375;1277;22127;-82
2023/12/16 07:59:20;;;;;;;38.80;19.50;;;;;;;-3.23;83.97;97416.38;110340;1277;22135;-83
2023/12/16 08:01:53;;;;;;;33.80;14.70;;;;;;;-3.15;83.77;97422.90;110344;1277;22134;-83
2023/12/16 08:04:21;;;;;;;47.60;14.70;;;;;;;-3.07;83.82;97429.96;110357;1277;22145;-82
2023/12/16 08:06:49;;;;;;;36.70;13.30;;;;;;;-2.98;83.77;97440.00;110335;1277;22151;-83
2023/12/16 08:09:17;;;;;;;37.00;17.10;;;;;;;-2.87;83.82;97439.30;110372;1277;22218;-83
2023/12/16 08:11:45;;;;;;;50.00;19.50;;;;;;;-2.82;83.46;97434.48;110327;1277;22276;-82
2023/12/16 08:14:14;;;;;;;48.70;19.40;;;;;;;-2.76;83.47;97438.23;110349;1277;22174;-82
2023/12/16 08:16:42;;;;;;;41.70;17.60;;;;;;;-2.75;83.14;97446.10;110353;1277;22881;-82
2023/12/16 08:19:10;;;;;;;39.80;17.70;;;;;;;-2.75;83.39;97445.04;110354;1277;22898;-82
2023/12/16 08:21:38;;;;;;;31.00;15.10;;;;;;;-2.72;83.39;97446.95;110342;1277;22209;-82
2023/12/16 08:24:06;;;;;;;31.10;14.60;;;;;;;-2.69;83.69;97452.33;110316;1277;22129;-82
2023/12/16 08:26:34;;;;;;;35.40;17.30;;;;;;;-2.59;83.78;97451.39;110365;1277;22102;-82
2023/12/16 08:29:02;;;;;;;30.30;15.90;;;;;;;-2.47;83.93;97445.26;110351;1277;22161;-82
2023/12/16 08:31:31;;;;;;;32.00;15.20;;;;;;;-2.31;84.05;97451.54;110338;1277;22174;-82
2023/12/16 08:33:59;;;;;;;23.20;13.90;;;;;;;-2.14;84.18;97448.11;110355;1277;22133;-82
2023/12/16 08:36:27;;;;;;;27.60;14.80;;;;;;;-1.95;84.05;97456.80;110367;1277;22308;-82
2023/12/16 08:38:55;;;;;;;26.70;14.80;;;;;;;-1.77;83.54;97457.34;110344;1277;22169;-82
2023/12/16 08:41:25;;;;;;;30.00;15.60;;;;;;;-1.67;82.10;97459.30;110325;1277;23239;-81
2023/12/16 08:43:54;;;;;;;31.30;16.20;;;;;;;-1.63;82.11;97462.10;110384;1277;22166;-82
2023/12/16 08:46:23;;;;;;;42.20;17.40;;;;;;;-1.56;82.30;97460.16;110342;1277;22133;-82
2023/12/16 08:48:53;;;;;;;41.40;18.20;;;;;;;-1.53;81.98;97462.89;110345;1277;22149;-82
2023/12/16 08:51:22;;;;;;;46.50;17.50;;;;;;;-1.43;82.53;97456.55;110351;1277;22137;-82
2023/12/16 08:53:51;;;;;;;41.10;18.50;;;;;;;-1.37;82.03;97456.41;110338;1277;22874;-82
2023/12/16 08:56:19;;;;;;;55.40;19.10;;;;;;;-1.25;82.76;97459.30;110348;1277;22158;-82
2023/12/16 08:58:47;;;;;;;51.30;17.90;;;;;;;-1.14;82.33;97461.16;110351;1277;22130;-82
2023/12/16 09:01:15;;;;;;;59.20;22.40;;;;;;;-1.15;81.59;97463.88;110378;1277;22119;-81
2023/12/16 09:03:44;;;;;;;36.60;18.00;;;;;;;-1.02;82.71;97467.38;110369;1277;22187;-82
2023/12/16 09:06:13;;;;;;;46.00;21.30;;;;;;;-0.81;82.31;97466.11;110375;1277;22167;-82
2023/12/16 09:08:41;;;;;;;36.80;18.90;;;;;;;-0.69;82.46;97463.81;110367;1277;22120;-81
2023/12/16 09:11:09;;;;;;;23.40;14.50;;;;;;;-0.52;82.57;97460.95;110344;1277;22166;-81
2023/12/16 09:13:37;;;;;;;26.10;13.70;;;;;;;-0.35;82.31;97462.38;110371;1277;22147;-81
2023/12/16 09:16:06;;;;;;;20.30;12.00;;;;;;;-0.20;81.08;97458.48;110345;1277;22858;-81
2023/12/16 09:18:37;;;;;;;21.90;12.80;;;;;;;-0.13;79.23;97459.73;110365;1277;22130;-81
2023/12/16 09:21:06;;;;;;;29.40;15.20;;;;;;;-0.05;78.99;97461.67;110366;1277;22199;-81
2023/12/16 09:23:34;;;;;;;26.90;15.60;;;;;;;0.01;78.57;97458.21;110344;1273;22407;-81
2023/12/16 09:26:03;;;;;;;32.20;16.80;;;;;;;0.09;78.42;97454.98;110368;1277;22152;-81
2023/12/16 09:28:31;;;;;;;30.10;17.80;;;;;;;0.17;78.18;97463.38;110347;1277;22137;-81
2023/12/16 09:30:59;;;;;;;29.70;17.70;;;;;;;0.24;77.68;97461.27;110332;1277;22134;-80
2023/12/16 09:33:28;;;;;;;26.40;15.70;;;;;;;0.32;77.85;97462.20;110371;1277;22148;-80
2023/12/16 09:35:56;;;;;;;29.00;15.50;;;;;;;0.40;77.74;97459.20;110347;1277;22202;-80
2023/12/16 09:38:24;;;;;;;29.90;16.30;;;;;;;0.53;77.62;97456.89;110365;1277;22899;-80
2023/12/16 09:40:52;;;;;;;25.30;15.10;;;;;;;0.67;76.60;97457.55;110370;1277;22137;-80
2023/12/16 09:43:22;;;;;;;20.30;12.90;;;;;;;0.91;75.57;97460.63;110330;1277;22122;-80
2023/12/16 09:45:50;;;;;;;16.60;10.40;;;;;;;1.20;73.56;97459.09;110337;1277;22917;-80
2023/12/16 09:48:20;;;;;;;15.90;9.10;;;;;;;1.52;72.04;97460.39;110354;1277;22140;-80
2023/12/16 09:50:48;;;;;;;13.40;7.70;;;;;;;1.82;70.81;97458.86;110298;1277;22830;-80
2023/12/16 09:53:17;;;;;;;10.90;7.50;;;;;;;2.15;71.37;97458.73;110377;1277;22116;-80
2023/12/16 09:55:45;;;;;;;14.20;8.80;;;;;;;2.49;70.39;97456.94;110390;1277;22172;-80
2023/12/16 09:58:16;;;;;;;14.30;8.40;;;;;;;2.71;67.01;97452.28;110364;1277;22801;-79
2023/12/16 10:00:46;;;;;;;13.90;8.50;;;;;;;2.97;66.31;97448.30;110326;1277;22190;-80
2023/12/16 10:03:16;;;;;;;12.90;8.00;;;;;;;3.18;65.34;97444.65;110353;1277;22208;-80
2023/12/16 10:05:46;;;;;;;12.90;8.00;;;;;;;3.48;65.87;97442.67;110150;1277;22159;-80
2023/12/16 10:08:14;;;;;;;11.90;7.00;;;;;;;3.70;63.42;97438.46;110364;1277;22445;-80
2023/12/16 10:10:42;;;;;;;10.00;6.30;;;;;;;3.96;63.49;97432.61;110358;1277;22138;-80
2023/12/16 10:13:21;;;;;;;10.70;6.70;;;;;;;4.20;62.71;97426.70;110370;1277;22141;-80
2023/12/16 10:15:50;;;;;;;11.00;6.50;;;;;;;4.34;61.14;97423.01;110381;1277;22106;-80
2023/12/16 10:18:18;;;;;;;9.40;6.50;;;;;;;4.60;60.61;97420.07;110359;1276;22142;-80
2023/12/16 10:20:47;;;;;;;10.60;7.10;;;;;;;4.95;60.88;97418.08;110329;1262;22299;-79
2023/12/16 10:23:15;;;;;;;13.10;8.40;;;;;;;5.30;60.76;97412.56;110282;1277;22159;-80
2023/12/16 10:25:45;;;;;;;16.90;7.80;;;;;;;5.60;59.25;97418.90;110344;1277;22116;-80
2023/12/16 10:28:13;;;;;;;13.60;8.20;;;;;;;5.77;57.18;97426.36;110347;1277;22220;-80
2023/12/16 10:30:42;;;;;;;11.90;7.70;;;;;;;5.93;57.43;97430.20;110361;1277;22129;-80
2023/12/16 10:33:11;;;;;;;12.70;7.60;;;;;;;6.07;56.32;97426.92;110350;1277;22297;-80
2023/12/16 10:35:39;;;;;;;10.90;7.20;;;;;;;6.21;55.26;97425.23;110157;1277;22265;-80
2023/12/16 10:38:08;;;;;;;12.20;7.30;;;;;;;6.54;56.66;97423.13;110208;1277;22325;-80
2023/12/16 10:40:37;;;;;;;9.70;7.30;;;;;;;6.87;54.36;97412.63;110345;1277;22140;-80
2023/12/16 10:43:05;;;;;;;9.90;6.60;;;;;;;7.13;53.01;97410.11;110346;1277;22251;-80
2023/12/16 10:45:34;;;;;;;12.20;8.80;;;;;;;7.48;52.97;97406.73;110342;1277;22282;-80
2023/12/16 10:48:09;;;;;;;11.60;8.20;;;;;;;7.75;52.82;97405.56;110368;1277;22366;-80
2023/12/16 10:50:43;;;;;;;13.20;7.80;;;;;;;8.02;51.45;97397.91;110227;1277;22098;-80
2023/12/16 10:53:24;;;;;;;11.20;7.70;;;;;;;8.39;52.34;97399.87;110385;1277;22935;-80
2023/12/16 10:56:02;;;;;;;8.70;5.90;;;;;;;8.72;49.33;97389.59;110343;1277;22134;-80
2023/12/16 10:58:31;;;;;;;6.20;3.90;;;;;;;8.83;47.37;97385.05;110332;1277;22137;-80
2023/12/16 11:01:21;;;;;;;5.70;3.90;;;;;;;8.95;45.30;97387.70;110371;1277;23071;-80
2023/12/16 11:03:57;;;;;;;6.80;4.30;;;;;;;9.11;44.08;97394.45;110367;1277;22793;-80
2023/12/16 11:06:42;;;;;;;7.30;4.80;;;;;;;9.12;44.89;97390.96;110343;1277;22883;-80
2023/12/16 11:09:12;;;;;;;7.70;5.30;;;;;;;9.57;44.17;97389.89;110322;1265;22351;-79
2023/12/16 11:11:41;;;;;;;5.50;3.90;;;;;;;9.76;43.06;97384.16;110317;1277;22119;-80
2023/12/16 11:14:10;;;;;;;5.70;4.00;;;;;;;9.93;44.60;97383.51;110346;1277;22126;-78
2023/12/16 11:16:48;;;;;;;4.70;3.10;;;;;;;9.82;42.20;97379.33;110361;1277;22241;-79
2023/12/16 11:19:17;;;;;;;4.70;2.80;;;;;;;10.12;41.50;97373.90;110363;1277;23009;-79
2023/12/16 11:21:46;;;;;;;4.00;3.30;;;;;;;10.30;41.86;97372.54;110279;1277;23009;-79
2023/12/16 11:24:15;;;;;;;4.40;3.00;;;;;;;10.36;41.73;97369.09;110305;1277;22167;-79
2023/12/16 11:26:50;;;;;;;5.10;2.60;;;;;;;10.68;41.42;97373.48;110344;1277;22843;-80
2023/12/16 11:29:23;;;;;;;4.20;2.90;;;;;;;10.90;40.52;97375.24;110345;1277;22175;-80